sensor_id;sensor_type;location;lat;lon;timestamp;P1;durP1;ratioP1;P2;durP2;ratioP2
14300;SDS011;7234;59.306;18.024;2023-11-21T00:02:25;2.50;;;1.80;;
14300;SDS011;7234;59.306;18.024;2023-11-21T00:04:53;3.10;;;2.10;;
14300;SDS011;7234;59.306;18.024;2023-11-21T00:07:20;2.43;;;1.90;;
14300;SDS011;7234;59.306;18.024;2023-11-21T00:09:49;3.57;;;2.07;;
14300;SDS011;7234;59.306;18.024;2023-11-21T00:12:16;2.13;;;1.80;;
14300;SDS011;7234;59.306;18.024;2023-11-21T00:14:43;2.20;;;1.80;;
14300;SDS011;7234;59.306;18.024;2023-11-21T00:17:10;2.33;;;2.00;;
14300;SDS011;7234;59.306;18.024;2023-11-21T00:19:37;6.43;;;4.40;;
14300;SDS011;7234;59.306;18.024;2023-11-21T00:22:04;3.73;;;2.63;;
14300;SDS011;7234;59.306;18.024;2023-11-21T00:24:32;2.90;;;2.27;;
14300;SDS011;7234;59.306;18.024;2023-11-21T00:27:00;2.57;;;2.17;;
14300;SDS011;7234;59.306;18.024;2023-11-21T00:29:27;2.73;;;2.10;;
14300;SDS011;7234;59.306;18.024;2023-11-21T00:31:54;3.67;;;2.13;;
14300;SDS011;7234;59.306;18.024;2023-11-21T00:34:21;1.93;;;1.77;;
14300;SDS011;7234;59.306;18.024;2023-11-21T00:36:49;3.03;;;2.03;;
14300;SDS011;7234;59.306;18.024;2023-11-21T00:39:16;2.77;;;2.00;;
14300;SDS011;7234;59.306;18.024;2023-11-21T00:41:43;2.63;;;2.20;;
14300;SDS011;7234;59.306;18.024;2023-11-21T00:44:12;3.37;;;2.20;;
14300;SDS011;7234;59.306;18.024;2023-11-21T00:46:39;2.90;;;2.20;;
14300;SDS011;7234;59.306;18.024;2023-11-21T00:49:06;2.60;;;1.87;;
14300;SDS011;7234;59.306;18.024;2023-11-21T00:51:33;2.37;;;2.10;;
14300;SDS011;7234;59.306;18.024;2023-11-21T00:54:00;2.67;;;2.07;;
14300;SDS011;7234;59.306;18.024;2023-11-21T00:56:27;3.03;;;2.30;;
14300;SDS011;7234;59.306;18.024;2023-11-21T00:58:55;2.40;;;1.80;;
14300;SDS011;7234;59.306;18.024;2023-11-21T01:01:23;2.73;;;1.83;;
14300;SDS011;7234;59.306;18.024;2023-11-21T01:03:50;2.43;;;2.03;;
14300;SDS011;7234;59.306;18.024;2023-11-21T01:06:17;2.60;;;2.03;;
14300;SDS011;7234;59.306;18.024;2023-11-21T01:08:45;2.17;;;1.83;;
14300;SDS011;7234;59.306;18.024;2023-11-21T01:11:12;2.57;;;1.93;;
14300;SDS011;7234;59.306;18.024;2023-11-21T01:13:39;3.10;;;2.17;;
14300;SDS011;7234;59.306;18.024;2023-11-21T01:16:07;2.83;;;2.07;;
14300;SDS011;7234;59.306;18.024;2023-11-21T01:18:36;2.57;;;2.00;;
14300;SDS011;7234;59.306;18.024;2023-11-21T01:21:03;2.93;;;1.80;;
14300;SDS011;7234;59.306;18.024;2023-11-21T01:23:30;2.17;;;1.97;;
14300;SDS011;7234;59.306;18.024;2023-11-21T01:25:57;4.47;;;2.17;;
14300;SDS011;7234;59.306;18.024;2023-11-21T01:28:24;2.30;;;1.93;;
14300;SDS011;7234;59.306;18.024;2023-11-21T01:30:51;2.63;;;2.07;;
14300;SDS011;7234;59.306;18.024;2023-11-21T01:33:21;2.33;;;2.13;;
14300;SDS011;7234;59.306;18.024;2023-11-21T01:35:51;2.33;;;1.70;;
14300;SDS011;7234;59.306;18.024;2023-11-21T01:38:20;2.93;;;2.03;;
14300;SDS011;7234;59.306;18.024;2023-11-21T01:40:47;2.83;;;1.97;;
14300;SDS011;7234;59.306;18.024;2023-11-21T01:43:14;2.60;;;1.90;;
14300;SDS011;7234;59.306;18.024;2023-11-21T01:45:41;2.60;;;2.10;;
14300;SDS011;7234;59.306;18.024;2023-11-21T01:48:10;2.63;;;2.03;;
14300;SDS011;7234;59.306;18.024;2023-11-21T01:50:38;2.40;;;1.77;;
14300;SDS011;7234;59.306;18.024;2023-11-21T01:53:06;2.67;;;1.90;;
14300;SDS011;7234;59.306;18.024;2023-11-21T01:55:34;2.50;;;1.87;;
14300;SDS011;7234;59.306;18.024;2023-11-21T01:58:01;2.23;;;1.77;;
14300;SDS011;7234;59.306;18.024;2023-11-21T02:00:28;2.97;;;1.97;;
14300;SDS011;7234;59.306;18.024;2023-11-21T02:02:56;3.07;;;2.30;;
14300;SDS011;7234;59.306;18.024;2023-11-21T02:05:24;2.27;;;2.00;;
14300;SDS011;7234;59.306;18.024;2023-11-21T02:07:52;2.07;;;1.80;;
14300;SDS011;7234;59.306;18.024;2023-11-21T02:10:20;2.37;;;2.07;;
14300;SDS011;7234;59.306;18.024;2023-11-21T02:12:48;2.33;;;2.03;;
14300;SDS011;7234;59.306;18.024;2023-11-21T02:15:16;3.13;;;2.10;;
14300;SDS011;7234;59.306;18.024;2023-11-21T02:17:45;2.00;;;1.80;;
14300;SDS011;7234;59.306;18.024;2023-11-21T02:20:16;2.47;;;2.10;;
14300;SDS011;7234;59.306;18.024;2023-11-21T02:22:48;2.30;;;1.90;;
14300;SDS011;7234;59.306;18.024;2023-11-21T02:25:18;3.10;;;2.10;;
14300;SDS011;7234;59.306;18.024;2023-11-21T02:27:45;2.43;;;1.97;;
14300;SDS011;7234;59.306;18.024;2023-11-21T02:30:13;2.70;;;2.00;;
14300;SDS011;7234;59.306;18.024;2023-11-21T02:32:41;2.60;;;2.10;;
14300;SDS011;7234;59.306;18.024;2023-11-21T02:35:09;5.73;;;2.07;;
14300;SDS011;7234;59.306;18.024;2023-11-21T02:37:37;2.40;;;2.03;;
14300;SDS011;7234;59.306;18.024;2023-11-21T02:40:08;2.67;;;2.13;;
14300;SDS011;7234;59.306;18.024;2023-11-21T02:42:37;2.83;;;2.00;;
14300;SDS011;7234;59.306;18.024;2023-11-21T02:45:06;2.20;;;1.90;;
14300;SDS011;7234;59.306;18.024;2023-11-21T02:47:33;1.87;;;1.60;;
14300;SDS011;7234;59.306;18.024;2023-11-21T02:50:00;3.27;;;1.97;;
14300;SDS011;7234;59.306;18.024;2023-11-21T02:52:27;3.67;;;1.80;;
14300;SDS011;7234;59.306;18.024;2023-11-21T02:54:54;3.17;;;1.97;;
14300;SDS011;7234;59.306;18.024;2023-11-21T02:57:22;2.80;;;2.03;;
14300;SDS011;7234;59.306;18.024;2023-11-21T02:59:49;2.27;;;2.03;;
14300;SDS011;7234;59.306;18.024;2023-11-21T03:02:16;2.20;;;1.83;;
14300;SDS011;7234;59.306;18.024;2023-11-21T03:04:43;2.50;;;2.00;;
14300;SDS011;7234;59.306;18.024;2023-11-21T03:07:10;2.50;;;1.93;;
14300;SDS011;7234;59.306;18.024;2023-11-21T03:09:37;2.27;;;1.83;;
14300;SDS011;7234;59.306;18.024;2023-11-21T03:12:05;2.10;;;1.80;;
14300;SDS011;7234;59.306;18.024;2023-11-21T03:14:33;1.70;;;1.47;;
14300;SDS011;7234;59.306;18.024;2023-11-21T03:17:00;4.20;;;2.07;;
14300;SDS011;7234;59.306;18.024;2023-11-21T03:19:30;2.20;;;1.97;;
14300;SDS011;7234;59.306;18.024;2023-11-21T03:21:57;2.30;;;2.03;;
14300;SDS011;7234;59.306;18.024;2023-11-21T03:24:24;2.33;;;1.93;;
14300;SDS011;7234;59.306;18.024;2023-11-21T03:26:51;2.60;;;2.03;;
14300;SDS011;7234;59.306;18.024;2023-11-21T03:29:18;2.30;;;1.97;;
14300;SDS011;7234;59.306;18.024;2023-11-21T03:31:47;2.20;;;1.80;;
14300;SDS011;7234;59.306;18.024;2023-11-21T03:34:15;3.30;;;2.07;;
14300;SDS011;7234;59.306;18.024;2023-11-21T03:36:49;1.93;;;1.73;;
14300;SDS011;7234;59.306;18.024;2023-11-21T03:39:16;2.43;;;1.97;;
14300;SDS011;7234;59.306;18.024;2023-11-21T03:41:43;3.43;;;2.23;;
14300;SDS011;7234;59.306;18.024;2023-11-21T03:44:10;2.67;;;2.13;;
14300;SDS011;7234;59.306;18.024;2023-11-21T03:46:37;2.90;;;2.00;;
14300;SDS011;7234;59.306;18.024;2023-11-21T03:49:06;2.37;;;1.90;;
14300;SDS011;7234;59.306;18.024;2023-11-21T03:51:33;2.60;;;2.00;;
14300;SDS011;7234;59.306;18.024;2023-11-21T03:54:00;2.17;;;1.90;;
14300;SDS011;7234;59.306;18.024;2023-11-21T03:56:28;2.93;;;2.20;;
14300;SDS011;7234;59.306;18.024;2023-11-21T03:58:55;3.13;;;2.30;;
14300;SDS011;7234;59.306;18.024;2023-11-21T04:01:22;2.20;;;1.83;;
14300;SDS011;7234;59.306;18.024;2023-11-21T04:03:50;3.00;;;2.20;;
14300;SDS011;7234;59.306;18.024;2023-11-21T04:06:19;2.30;;;1.90;;
14300;SDS011;7234;59.306;18.024;2023-11-21T04:08:46;2.50;;;2.30;;
14300;SDS011;7234;59.306;18.024;2023-11-21T04:11:12;2.40;;;2.13;;
14300;SDS011;7234;59.306;18.024;2023-11-21T04:13:41;2.30;;;2.10;;
14300;SDS011;7234;59.306;18.024;2023-11-21T04:16:08;4.40;;;2.50;;
14300;SDS011;7234;59.306;18.024;2023-11-21T04:18:35;2.90;;;2.07;;
14300;SDS011;7234;59.306;18.024;2023-11-21T04:21:03;2.57;;;2.10;;
14300;SDS011;7234;59.306;18.024;2023-11-21T04:23:35;3.07;;;2.30;;
14300;SDS011;7234;59.306;18.024;2023-11-21T04:26:02;3.07;;;2.17;;
14300;SDS011;7234;59.306;18.024;2023-11-21T04:28:29;4.23;;;2.20;;
14300;SDS011;7234;59.306;18.024;2023-11-21T04:30:59;2.43;;;2.03;;
14300;SDS011;7234;59.306;18.024;2023-11-21T04:33:27;2.30;;;2.10;;
14300;SDS011;7234;59.306;18.024;2023-11-21T04:35:54;3.67;;;2.27;;
14300;SDS011;7234;59.306;18.024;2023-11-21T04:38:21;2.63;;;2.23;;
14300;SDS011;7234;59.306;18.024;2023-11-21T04:40:49;3.07;;;2.40;;
14300;SDS011;7234;59.306;18.024;2023-11-21T04:43:16;4.70;;;1.93;;
14300;SDS011;7234;59.306;18.024;2023-11-21T04:45:43;2.17;;;1.97;;
14300;SDS011;7234;59.306;18.024;2023-11-21T04:48:10;2.43;;;1.90;;
14300;SDS011;7234;59.306;18.024;2023-11-21T04:50:37;2.40;;;2.20;;
14300;SDS011;7234;59.306;18.024;2023-11-21T04:53:04;2.53;;;2.00;;
14300;SDS011;7234;59.306;18.024;2023-11-21T04:55:31;2.40;;;2.00;;
14300;SDS011;7234;59.306;18.024;2023-11-21T04:57:59;2.77;;;1.80;;
14300;SDS011;7234;59.306;18.024;2023-11-21T05:00:26;2.03;;;1.50;;
14300;SDS011;7234;59.306;18.024;2023-11-21T05:02:53;1.90;;;1.80;;
14300;SDS011;7234;59.306;18.024;2023-11-21T05:05:20;2.30;;;1.70;;
14300;SDS011;7234;59.306;18.024;2023-11-21T05:07:47;2.00;;;1.80;;
14300;SDS011;7234;59.306;18.024;2023-11-21T05:10:15;2.57;;;1.70;;
14300;SDS011;7234;59.306;18.024;2023-11-21T05:12:42;1.93;;;1.73;;
14300;SDS011;7234;59.306;18.024;2023-11-21T05:15:13;1.97;;;1.53;;
14300;SDS011;7234;59.306;18.024;2023-11-21T05:17:41;2.67;;;1.77;;
14300;SDS011;7234;59.306;18.024;2023-11-21T05:20:11;1.50;;;1.40;;
14300;SDS011;7234;59.306;18.024;2023-11-21T05:22:39;2.00;;;1.50;;
14300;SDS011;7234;59.306;18.024;2023-11-21T05:25:07;1.83;;;1.70;;
14300;SDS011;7234;59.306;18.024;2023-11-21T05:27:34;2.17;;;1.80;;
14300;SDS011;7234;59.306;18.024;2023-11-21T05:30:02;1.83;;;1.53;;
14300;SDS011;7234;59.306;18.024;2023-11-21T05:32:31;2.47;;;1.93;;
14300;SDS011;7234;59.306;18.024;2023-11-21T05:34:59;1.80;;;1.47;;
14300;SDS011;7234;59.306;18.024;2023-11-21T05:37:26;3.03;;;1.60;;
14300;SDS011;7234;59.306;18.024;2023-11-21T05:39:56;2.33;;;1.57;;
14300;SDS011;7234;59.306;18.024;2023-11-21T05:42:23;2.57;;;1.70;;
14300;SDS011;7234;59.306;18.024;2023-11-21T05:44:50;3.17;;;2.10;;
14300;SDS011;7234;59.306;18.024;2023-11-21T05:47:17;3.20;;;2.47;;
14300;SDS011;7234;59.306;18.024;2023-11-21T05:49:45;2.20;;;2.00;;
14300;SDS011;7234;59.306;18.024;2023-11-21T05:52:15;2.13;;;1.70;;
14300;SDS011;7234;59.306;18.024;2023-11-21T05:54:43;1.97;;;1.63;;
14300;SDS011;7234;59.306;18.024;2023-11-21T05:57:10;2.20;;;1.80;;
14300;SDS011;7234;59.306;18.024;2023-11-21T05:59:37;2.10;;;1.70;;
14300;SDS011;7234;59.306;18.024;2023-11-21T06:02:04;1.70;;;1.40;;
14300;SDS011;7234;59.306;18.024;2023-11-21T06:04:31;2.57;;;1.87;;
14300;SDS011;7234;59.306;18.024;2023-11-21T06:06:59;1.73;;;1.60;;
14300;SDS011;7234;59.306;18.024;2023-11-21T06:09:27;2.03;;;1.63;;
14300;SDS011;7234;59.306;18.024;2023-11-21T06:11:55;1.93;;;1.80;;
14300;SDS011;7234;59.306;18.024;2023-11-21T06:14:22;2.13;;;1.80;;
14300;SDS011;7234;59.306;18.024;2023-11-21T06:16:49;2.07;;;1.87;;
14300;SDS011;7234;59.306;18.024;2023-11-21T06:19:17;2.03;;;1.67;;
14300;SDS011;7234;59.306;18.024;2023-11-21T06:21:45;1.87;;;1.70;;
14300;SDS011;7234;59.306;18.024;2023-11-21T06:24:16;1.97;;;1.70;;
14300;SDS011;7234;59.306;18.024;2023-11-21T06:26:45;1.90;;;1.37;;
14300;SDS011;7234;59.306;18.024;2023-11-21T06:29:13;1.90;;;1.60;;
14300;SDS011;7234;59.306;18.024;2023-11-21T06:31:41;2.20;;;1.60;;
14300;SDS011;7234;59.306;18.024;2023-11-21T06:34:09;1.60;;;1.50;;
14300;SDS011;7234;59.306;18.024;2023-11-21T06:36:36;2.40;;;1.67;;
14300;SDS011;7234;59.306;18.024;2023-11-21T06:39:03;2.43;;;2.00;;
14300;SDS011;7234;59.306;18.024;2023-11-21T06:41:35;1.80;;;1.67;;
14300;SDS011;7234;59.306;18.024;2023-11-21T06:44:04;1.90;;;1.70;;
14300;SDS011;7234;59.306;18.024;2023-11-21T06:46:31;2.63;;;1.90;;
14300;SDS011;7234;59.306;18.024;2023-11-21T06:48:58;2.43;;;2.03;;
14300;SDS011;7234;59.306;18.024;2023-11-21T06:51:25;4.00;;;2.73;;
14300;SDS011;7234;59.306;18.024;2023-11-21T06:53:52;5.20;;;1.80;;
14300;SDS011;7234;59.306;18.024;2023-11-21T06:56:19;2.00;;;1.80;;
14300;SDS011;7234;59.306;18.024;2023-11-21T06:58:48;3.43;;;1.90;;
14300;SDS011;7234;59.306;18.024;2023-11-21T07:01:15;3.23;;;2.20;;
14300;SDS011;7234;59.306;18.024;2023-11-21T07:03:42;2.37;;;2.17;;
14300;SDS011;7234;59.306;18.024;2023-11-21T07:06:09;2.30;;;1.60;;
14300;SDS011;7234;59.306;18.024;2023-11-21T07:08:36;2.50;;;1.60;;
14300;SDS011;7234;59.306;18.024;2023-11-21T07:11:03;2.20;;;1.70;;
14300;SDS011;7234;59.306;18.024;2023-11-21T07:13:31;3.60;;;2.03;;
14300;SDS011;7234;59.306;18.024;2023-11-21T07:15:59;1.97;;;1.73;;
14300;SDS011;7234;59.306;18.024;2023-11-21T07:18:26;2.40;;;1.90;;
14300;SDS011;7234;59.306;18.024;2023-11-21T07:20:53;2.80;;;2.00;;
14300;SDS011;7234;59.306;18.024;2023-11-21T07:23:20;2.03;;;1.80;;
14300;SDS011;7234;59.306;18.024;2023-11-21T07:25:48;3.03;;;1.73;;
14300;SDS011;7234;59.306;18.024;2023-11-21T07:28:14;2.50;;;1.70;;
14300;SDS011;7234;59.306;18.024;2023-11-21T07:30:42;1.90;;;1.50;;
14300;SDS011;7234;59.306;18.024;2023-11-21T07:33:10;3.47;;;2.33;;
14300;SDS011;7234;59.306;18.024;2023-11-21T07:35:37;3.20;;;2.53;;
14300;SDS011;7234;59.306;18.024;2023-11-21T07:38:04;3.23;;;2.00;;
14300;SDS011;7234;59.306;18.024;2023-11-21T07:40:31;3.10;;;1.87;;
14300;SDS011;7234;59.306;18.024;2023-11-21T07:42:58;3.27;;;1.73;;
14300;SDS011;7234;59.306;18.024;2023-11-21T07:45:25;2.50;;;1.90;;
14300;SDS011;7234;59.306;18.024;2023-11-21T07:47:53;1.70;;;1.60;;
14300;SDS011;7234;59.306;18.024;2023-11-21T07:50:22;1.60;;;1.33;;
14300;SDS011;7234;59.306;18.024;2023-11-21T07:52:49;2.63;;;1.93;;
14300;SDS011;7234;59.306;18.024;2023-11-21T07:55:16;1.87;;;1.70;;
14300;SDS011;7234;59.306;18.024;2023-11-21T07:57:43;2.77;;;1.83;;
14300;SDS011;7234;59.306;18.024;2023-11-21T08:00:11;2.57;;;1.93;;
14300;SDS011;7234;59.306;18.024;2023-11-21T08:02:40;3.63;;;1.70;;
14300;SDS011;7234;59.306;18.024;2023-11-21T08:05:11;2.03;;;1.67;;
14300;SDS011;7234;59.306;18.024;2023-11-21T08:07:39;3.23;;;1.90;;
14300;SDS011;7234;59.306;18.024;2023-11-21T08:10:07;2.67;;;2.00;;
14300;SDS011;7234;59.306;18.024;2023-11-21T08:12:36;2.77;;;2.03;;
14300;SDS011;7234;59.306;18.024;2023-11-21T08:15:04;3.23;;;1.73;;
14300;SDS011;7234;59.306;18.024;2023-11-21T08:17:32;2.10;;;1.80;;
14300;SDS011;7234;59.306;18.024;2023-11-21T08:20:00;3.27;;;1.80;;
14300;SDS011;7234;59.306;18.024;2023-11-21T08:22:28;2.93;;;1.53;;
14300;SDS011;7234;59.306;18.024;2023-11-21T08:24:57;2.83;;;1.80;;
14300;SDS011;7234;59.306;18.024;2023-11-21T08:27:24;1.87;;;1.50;;
14300;SDS011;7234;59.306;18.024;2023-11-21T08:29:51;3.70;;;2.10;;
14300;SDS011;7234;59.306;18.024;2023-11-21T08:32:18;3.60;;;2.60;;
14300;SDS011;7234;59.306;18.024;2023-11-21T08:34:45;3.13;;;1.90;;
14300;SDS011;7234;59.306;18.024;2023-11-21T08:37:15;2.63;;;1.90;;
14300;SDS011;7234;59.306;18.024;2023-11-21T08:39:43;2.57;;;1.80;;
14300;SDS011;7234;59.306;18.024;2023-11-21T08:42:14;2.33;;;1.53;;
14300;SDS011;7234;59.306;18.024;2023-11-21T08:44:41;3.47;;;1.53;;
14300;SDS011;7234;59.306;18.024;2023-11-21T08:47:08;2.10;;;1.70;;
14300;SDS011;7234;59.306;18.024;2023-11-21T08:49:35;2.73;;;1.70;;
14300;SDS011;7234;59.306;18.024;2023-11-21T08:52:03;2.10;;;1.50;;
14300;SDS011;7234;59.306;18.024;2023-11-21T08:54:31;1.97;;;1.63;;
14300;SDS011;7234;59.306;18.024;2023-11-21T08:56:59;2.53;;;1.83;;
14300;SDS011;7234;59.306;18.024;2023-11-21T08:59:27;2.40;;;1.70;;
14300;SDS011;7234;59.306;18.024;2023-11-21T09:01:54;4.47;;;1.97;;
14300;SDS011;7234;59.306;18.024;2023-11-21T09:04:21;2.80;;;2.13;;
14300;SDS011;7234;59.306;18.024;2023-11-21T09:06:48;4.13;;;1.97;;
14300;SDS011;7234;59.306;18.024;2023-11-21T09:09:15;3.07;;;1.80;;
14300;SDS011;7234;59.306;18.024;2023-11-21T09:11:46;2.73;;;1.70;;
14300;SDS011;7234;59.306;18.024;2023-11-21T09:14:14;2.40;;;1.50;;
14300;SDS011;7234;59.306;18.024;2023-11-21T09:16:44;2.07;;;1.57;;
14300;SDS011;7234;59.306;18.024;2023-11-21T09:19:12;1.93;;;1.53;;
14300;SDS011;7234;59.306;18.024;2023-11-21T09:21:40;4.20;;;1.80;;
14300;SDS011;7234;59.306;18.024;2023-11-21T09:24:09;1.70;;;1.17;;
14300;SDS011;7234;59.306;18.024;2023-11-21T09:26:40;1.60;;;1.30;;
14300;SDS011;7234;59.306;18.024;2023-11-21T09:29:07;2.53;;;1.50;;
14300;SDS011;7234;59.306;18.024;2023-11-21T09:31:34;1.67;;;1.40;;
14300;SDS011;7234;59.306;18.024;2023-11-21T09:34:03;1.57;;;1.30;;
14300;SDS011;7234;59.306;18.024;2023-11-21T09:36:32;1.60;;;1.40;;
14300;SDS011;7234;59.306;18.024;2023-11-21T09:38:59;1.17;;;1.07;;
14300;SDS011;7234;59.306;18.024;2023-11-21T09:41:29;2.93;;;1.33;;
14300;SDS011;7234;59.306;18.024;2023-11-21T09:44:00;1.47;;;1.30;;
14300;SDS011;7234;59.306;18.024;2023-11-21T09:46:32;2.63;;;1.47;;
14300;SDS011;7234;59.306;18.024;2023-11-21T09:49:00;2.83;;;1.43;;
14300;SDS011;7234;59.306;18.024;2023-11-21T09:51:33;2.33;;;1.30;;
14300;SDS011;7234;59.306;18.024;2023-11-21T09:54:03;1.70;;;1.53;;
14300;SDS011;7234;59.306;18.024;2023-11-21T09:56:34;1.77;;;1.40;;
14300;SDS011;7234;59.306;18.024;2023-11-21T09:59:01;1.70;;;1.50;;
14300;SDS011;7234;59.306;18.024;2023-11-21T10:01:33;2.73;;;1.90;;
14300;SDS011;7234;59.306;18.024;2023-11-21T10:04:04;3.23;;;1.67;;
14300;SDS011;7234;59.306;18.024;2023-11-21T10:06:36;2.10;;;1.60;;
14300;SDS011;7234;59.306;18.024;2023-11-21T10:09:05;2.50;;;1.60;;
14300;SDS011;7234;59.306;18.024;2023-11-21T10:11:36;2.57;;;1.70;;
14300;SDS011;7234;59.306;18.024;2023-11-21T10:14:06;2.60;;;1.97;;
14300;SDS011;7234;59.306;18.024;2023-11-21T10:16:38;3.23;;;1.90;;
14300;SDS011;7234;59.306;18.024;2023-11-21T10:19:07;2.27;;;1.67;;
14300;SDS011;7234;59.306;18.024;2023-11-21T10:21:41;1.70;;;1.47;;
14300;SDS011;7234;59.306;18.024;2023-11-21T10:24:09;2.30;;;1.40;;
14300;SDS011;7234;59.306;18.024;2023-11-21T10:26:37;2.83;;;1.80;;
14300;SDS011;7234;59.306;18.024;2023-11-21T10:29:05;2.00;;;1.40;;
14300;SDS011;7234;59.306;18.024;2023-11-21T10:31:32;1.77;;;1.37;;
14300;SDS011;7234;59.306;18.024;2023-11-21T10:34:13;2.23;;;1.70;;
14300;SDS011;7234;59.306;18.024;2023-11-21T10:36:40;2.93;;;1.77;;
14300;SDS011;7234;59.306;18.024;2023-11-21T10:39:07;1.70;;;1.50;;
14300;SDS011;7234;59.306;18.024;2023-11-21T10:41:36;2.50;;;1.70;;
14300;SDS011;7234;59.306;18.024;2023-11-21T10:44:03;1.90;;;1.70;;
14300;SDS011;7234;59.306;18.024;2023-11-21T10:46:32;2.30;;;1.77;;
14300;SDS011;7234;59.306;18.024;2023-11-21T10:49:00;2.23;;;1.70;;
14300;SDS011;7234;59.306;18.024;2023-11-21T10:51:28;2.60;;;2.10;;
14300;SDS011;7234;59.306;18.024;2023-11-21T10:53:55;2.43;;;1.97;;
14300;SDS011;7234;59.306;18.024;2023-11-21T10:56:25;3.07;;;2.33;;
14300;SDS011;7234;59.306;18.024;2023-11-21T10:58:55;4.83;;;2.17;;
14300;SDS011;7234;59.306;18.024;2023-11-21T11:01:23;3.00;;;2.30;;
14300;SDS011;7234;59.306;18.024;2023-11-21T11:03:54;2.80;;;2.00;;
14300;SDS011;7234;59.306;18.024;2023-11-21T11:06:22;3.00;;;1.77;;
14300;SDS011;7234;59.306;18.024;2023-11-21T11:08:53;2.67;;;2.00;;
14300;SDS011;7234;59.306;18.024;2023-11-21T11:11:22;2.73;;;1.50;;
14300;SDS011;7234;59.306;18.024;2023-11-21T11:13:49;3.63;;;2.20;;
14300;SDS011;7234;59.306;18.024;2023-11-21T11:16:18;4.97;;;2.17;;
14300;SDS011;7234;59.306;18.024;2023-11-21T11:18:47;2.27;;;1.87;;
14300;SDS011;7234;59.306;18.024;2023-11-21T11:21:22;2.67;;;1.73;;
14300;SDS011;7234;59.306;18.024;2023-11-21T11:24:04;2.30;;;1.70;;
14300;SDS011;7234;59.306;18.024;2023-11-21T11:26:42;4.43;;;2.37;;
14300;SDS011;7234;59.306;18.024;2023-11-21T11:29:18;4.27;;;2.17;;
14300;SDS011;7234;59.306;18.024;2023-11-21T11:31:55;2.50;;;1.90;;
14300;SDS011;7234;59.306;18.024;2023-11-21T11:34:32;4.20;;;2.13;;
14300;SDS011;7234;59.306;18.024;2023-11-21T11:37:04;2.07;;;1.80;;
14300;SDS011;7234;59.306;18.024;2023-11-21T11:39:36;2.30;;;2.03;;
14300;SDS011;7234;59.306;18.024;2023-11-21T11:42:05;2.20;;;1.97;;
14300;SDS011;7234;59.306;18.024;2023-11-21T11:44:47;5.03;;;2.10;;
14300;SDS011;7234;59.306;18.024;2023-11-21T11:47:20;3.23;;;1.63;;
14300;SDS011;7234;59.306;18.024;2023-11-21T11:49:56;1.83;;;1.63;;
14300;SDS011;7234;59.306;18.024;2023-11-21T11:52:32;2.40;;;2.00;;
14300;SDS011;7234;59.306;18.024;2023-11-21T11:55:01;2.60;;;1.70;;
14300;SDS011;7234;59.306;18.024;2023-11-21T11:57:29;1.97;;;1.60;;
14300;SDS011;7234;59.306;18.024;2023-11-21T12:00:09;4.40;;;1.70;;
14300;SDS011;7234;59.306;18.024;2023-11-21T12:02:37;1.80;;;1.50;;
14300;SDS011;7234;59.306;18.024;2023-11-21T12:05:09;2.57;;;1.70;;
14300;SDS011;7234;59.306;18.024;2023-11-21T12:07:44;2.10;;;1.70;;
14300;SDS011;7234;59.306;18.024;2023-11-21T12:10:15;1.83;;;1.60;;
14300;SDS011;7234;59.306;18.024;2023-11-21T12:12:45;2.80;;;1.87;;
14300;SDS011;7234;59.306;18.024;2023-11-21T12:15:12;2.00;;;1.63;;
14300;SDS011;7234;59.306;18.024;2023-11-21T12:17:39;3.93;;;1.90;;
14300;SDS011;7234;59.306;18.024;2023-11-21T12:20:08;2.60;;;1.63;;
14300;SDS011;7234;59.306;18.024;2023-11-21T12:22:43;1.90;;;1.50;;
14300;SDS011;7234;59.306;18.024;2023-11-21T12:25:12;2.73;;;1.70;;
14300;SDS011;7234;59.306;18.024;2023-11-21T12:27:43;2.43;;;1.87;;
14300;SDS011;7234;59.306;18.024;2023-11-21T12:30:11;3.20;;;1.30;;
14300;SDS011;7234;59.306;18.024;2023-11-21T12:32:40;3.83;;;1.67;;
14300;SDS011;7234;59.306;18.024;2023-11-21T12:35:09;2.73;;;1.80;;
14300;SDS011;7234;59.306;18.024;2023-11-21T12:37:36;2.60;;;1.47;;
14300;SDS011;7234;59.306;18.024;2023-11-21T12:40:05;2.20;;;1.40;;
14300;SDS011;7234;59.306;18.024;2023-11-21T12:42:38;1.50;;;1.20;;
14300;SDS011;7234;59.306;18.024;2023-11-21T12:45:07;1.80;;;1.40;;
14300;SDS011;7234;59.306;18.024;2023-11-21T12:47:39;1.60;;;1.27;;
14300;SDS011;7234;59.306;18.024;2023-11-21T12:50:07;1.90;;;1.40;;
14300;SDS011;7234;59.306;18.024;2023-11-21T12:52:39;2.77;;;1.50;;
14300;SDS011;7234;59.306;18.024;2023-11-21T12:55:09;1.47;;;1.20;;
14300;SDS011;7234;59.306;18.024;2023-11-21T12:57:42;1.90;;;1.20;;
14300;SDS011;7234;59.306;18.024;2023-11-21T13:00:10;2.07;;;1.00;;
14300;SDS011;7234;59.306;18.024;2023-11-21T13:02:51;2.13;;;1.10;;
14300;SDS011;7234;59.306;18.024;2023-11-21T13:05:28;1.73;;;1.20;;
14300;SDS011;7234;59.306;18.024;2023-11-21T13:07:57;0.97;;;0.87;;
14300;SDS011;7234;59.306;18.024;2023-11-21T13:10:27;2.10;;;1.10;;
14300;SDS011;7234;59.306;18.024;2023-11-21T13:12:58;2.43;;;1.37;;
14300;SDS011;7234;59.306;18.024;2023-11-21T13:15:26;1.67;;;1.37;;
14300;SDS011;7234;59.306;18.024;2023-11-21T13:17:56;2.23;;;1.50;;
14300;SDS011;7234;59.306;18.024;2023-11-21T13:20:24;1.30;;;1.20;;
14300;SDS011;7234;59.306;18.024;2023-11-21T13:22:52;1.20;;;1.10;;
14300;SDS011;7234;59.306;18.024;2023-11-21T13:25:22;1.60;;;1.23;;
14300;SDS011;7234;59.306;18.024;2023-11-21T13:27:52;2.50;;;1.10;;
14300;SDS011;7234;59.306;18.024;2023-11-21T13:30:22;1.73;;;0.90;;
14300;SDS011;7234;59.306;18.024;2023-11-21T13:32:52;1.33;;;1.20;;
14300;SDS011;7234;59.306;18.024;2023-11-21T13:35:22;2.40;;;1.03;;
14300;SDS011;7234;59.306;18.024;2023-11-21T13:37:56;1.00;;;0.90;;
14300;SDS011;7234;59.306;18.024;2023-11-21T13:40:25;3.30;;;1.27;;
14300;SDS011;7234;59.306;18.024;2023-11-21T13:42:53;1.27;;;1.17;;
14300;SDS011;7234;59.306;18.024;2023-11-21T13:45:22;1.23;;;1.10;;
14300;SDS011;7234;59.306;18.024;2023-11-21T13:47:50;1.90;;;1.00;;
14300;SDS011;7234;59.306;18.024;2023-11-21T13:50:23;1.43;;;0.90;;
14300;SDS011;7234;59.306;18.024;2023-11-21T13:52:55;1.93;;;1.10;;
14300;SDS011;7234;59.306;18.024;2023-11-21T13:55:23;1.50;;;1.00;;
14300;SDS011;7234;59.306;18.024;2023-11-21T13:57:51;1.83;;;1.37;;
14300;SDS011;7234;59.306;18.024;2023-11-21T14:00:19;2.33;;;1.43;;
14300;SDS011;7234;59.306;18.024;2023-11-21T14:03:10;2.70;;;1.10;;
14300;SDS011;7234;59.306;18.024;2023-11-21T14:05:44;1.97;;;1.50;;
14300;SDS011;7234;59.306;18.024;2023-11-21T14:08:16;2.73;;;1.23;;
14300;SDS011;7234;59.306;18.024;2023-11-21T14:10:45;1.60;;;1.20;;
14300;SDS011;7234;59.306;18.024;2023-11-21T14:13:18;1.27;;;1.00;;
14300;SDS011;7234;59.306;18.024;2023-11-21T14:15:50;1.97;;;1.30;;
14300;SDS011;7234;59.306;18.024;2023-11-21T14:18:22;1.97;;;1.40;;
14300;SDS011;7234;59.306;18.024;2023-11-21T14:20:55;1.63;;;1.20;;
14300;SDS011;7234;59.306;18.024;2023-11-21T14:23:22;4.10;;;1.47;;
14300;SDS011;7234;59.306;18.024;2023-11-21T14:25:49;4.93;;;1.53;;
14300;SDS011;7234;59.306;18.024;2023-11-21T14:28:17;1.80;;;1.40;;
14300;SDS011;7234;59.306;18.024;2023-11-21T14:30:44;2.00;;;1.30;;
14300;SDS011;7234;59.306;18.024;2023-11-21T14:33:13;3.07;;;1.50;;
14300;SDS011;7234;59.306;18.024;2023-11-21T14:35:42;3.53;;;1.57;;
14300;SDS011;7234;59.306;18.024;2023-11-21T14:38:09;1.90;;;1.33;;
14300;SDS011;7234;59.306;18.024;2023-11-21T14:40:39;2.10;;;1.53;;
14300;SDS011;7234;59.306;18.024;2023-11-21T14:43:06;3.03;;;1.50;;
14300;SDS011;7234;59.306;18.024;2023-11-21T14:45:35;1.90;;;1.50;;
14300;SDS011;7234;59.306;18.024;2023-11-21T14:48:02;2.10;;;1.53;;
14300;SDS011;7234;59.306;18.024;2023-11-21T14:50:42;2.73;;;1.97;;
14300;SDS011;7234;59.306;18.024;2023-11-21T14:53:16;3.00;;;1.70;;
14300;SDS011;7234;59.306;18.024;2023-11-21T14:56:00;3.13;;;2.00;;
14300;SDS011;7234;59.306;18.024;2023-11-21T14:58:29;2.07;;;1.47;;